sensor_id;sensor_type;location;lat;lon;timestamp;pressure;altitude;pressure_sealevel;temperature;humidity
75497;BME280;64074;47.540;19.072;2022-10-16T00:03:10;101025.50;;;15.05;62.73
75497;BME280;64074;47.540;19.072;2022-10-16T00:06:15;101025.31;;;15.01;62.90
75497;BME280;64074;47.540;19.072;2022-10-16T00:09:18;101034.00;;;15.03;62.73
75497;BME280;64074;47.540;19.072;2022-10-16T00:12:31;101039.16;;;15.05;62.82
75497;BME280;64074;47.540;19.072;2022-10-16T00:15:47;101031.28;;;15.03;62.63
75497;BME280;64074;47.540;19.072;2022-10-16T00:19:00;101027.84;;;14.98;62.62
75497;BME280;64074;47.540;19.072;2022-10-16T00:22:04;101037.34;;;15.00;62.94
75497;BME280;64074;47.540;19.072;2022-10-16T00:25:14;101043.94;;;14.99;62.54
75497;BME280;64074;47.540;19.072;2022-10-16T00:28:28;101050.50;;;14.98;62.43
75497;BME280;64074;47.540;19.072;2022-10-16T00:31:50;101058.69;;;14.98;62.47
75497;BME280;64074;47.540;19.072;2022-10-16T00:35:10;101050.50;;;14.98;62.33
75497;BME280;64074;47.540;19.072;2022-10-16T00:38:33;101063.16;;;14.94;62.60
75497;BME280;64074;47.540;19.072;2022-10-16T00:41:54;101061.03;;;14.91;62.79
75497;BME280;64074;47.540;19.072;2022-10-16T00:45:15;101061.34;;;14.90;62.61
75497;BME280;64074;47.540;19.072;2022-10-16T00:48:47;101061.66;;;14.88;62.33
75497;BME280;64074;47.540;19.072;2022-10-16T00:52:05;101066.09;;;14.84;62.66
75497;BME280;64074;47.540;19.072;2022-10-16T00:55:15;101061.44;;;14.85;62.45
75497;BME280;64074;47.540;19.072;2022-10-16T00:58:43;101071.88;;;14.83;62.22
75497;BME280;64074;47.540;19.072;2022-10-16T01:02:04;101074.72;;;14.77;62.29
75497;BME280;64074;47.540;19.072;2022-10-16T01:05:50;101072.28;;;14.76;62.45
75497;BME280;64074;47.540;19.072;2022-10-16T01:09:11;101084.63;;;14.73;62.09
75497;BME280;64074;47.540;19.072;2022-10-16T01:12:30;101077.66;;;14.67;62.43
75497;BME280;64074;47.540;19.072;2022-10-16T01:16:22;101072.59;;;14.61;62.63
75497;BME280;64074;47.540;19.072;2022-10-16T01:20:29;101081.50;;;14.53;62.50
75497;BME280;64074;47.540;19.072;2022-10-16T01:27:30;101085.25;;;14.43;62.79
75497;BME280;64074;47.540;19.072;2022-10-16T01:30:42;101083.66;;;14.37;62.63
75497;BME280;64074;47.540;19.072;2022-10-16T01:34:10;101090.03;;;14.32;62.49
75497;BME280;64074;47.540;19.072;2022-10-16T01:37:35;101094.28;;;14.25;62.68
75497;BME280;64074;47.540;19.072;2022-10-16T01:40:51;101093.28;;;14.21;63.11
75497;BME280;64074;47.540;19.072;2022-10-16T01:44:06;101096.31;;;14.19;63.02
75497;BME280;64074;47.540;19.072;2022-10-16T01:47:23;101098.88;;;14.10;63.01
75497;BME280;64074;47.540;19.072;2022-10-16T01:50:39;101109.38;;;14.03;63.54
75497;BME280;64074;47.540;19.072;2022-10-16T01:54:02;101105.44;;;13.96;64.00
75497;BME280;64074;47.540;19.072;2022-10-16T01:57:08;101103.63;;;13.91;64.03
75497;BME280;64074;47.540;19.072;2022-10-16T02:00:22;101106.94;;;13.88;63.84
75497;BME280;64074;47.540;19.072;2022-10-16T02:03:33;101114.06;;;13.84;64.12
75497;BME280;64074;47.540;19.072;2022-10-16T02:06:52;101119.53;;;13.84;63.97
75497;BME280;64074;47.540;19.072;2022-10-16T02:10:06;101125.06;;;13.79;64.15
75497;BME280;64074;47.540;19.072;2022-10-16T02:13:37;101125.75;;;13.71;64.35
75497;BME280;64074;47.540;19.072;2022-10-16T02:16:59;101115.13;;;13.69;64.67
75497;BME280;64074;47.540;19.072;2022-10-16T02:20:11;101108.22;;;13.58;65.09
75497;BME280;64074;47.540;19.072;2022-10-16T02:23:23;101105.88;;;13.51;65.22
75497;BME280;64074;47.540;19.072;2022-10-16T02:26:48;101108.47;;;13.43;65.58
75497;BME280;64074;47.540;19.072;2022-10-16T02:30:39;101117.38;;;13.30;66.70
75497;BME280;64074;47.540;19.072;2022-10-16T02:33:46;101122.44;;;13.17;67.37
75497;BME280;64074;47.540;19.072;2022-10-16T02:36:51;101123.63;;;13.06;67.91
75497;BME280;64074;47.540;19.072;2022-10-16T02:40:02;101122.59;;;13.02;68.01
75497;BME280;64074;47.540;19.072;2022-10-16T02:43:13;101129.53;;;12.94;68.72
75497;BME280;64074;47.540;19.072;2022-10-16T02:46:36;101128.66;;;12.75;69.41
75497;BME280;64074;47.540;19.072;2022-10-16T02:50:08;101133.66;;;12.68;70.22
75497;BME280;64074;47.540;19.072;2022-10-16T02:53:17;101132.13;;;12.57;70.38
75497;BME280;64074;47.540;19.072;2022-10-16T02:56:47;101130.06;;;12.49;70.12
75497;BME280;64074;47.540;19.072;2022-10-16T02:59:56;101140.41;;;12.47;71.29
75497;BME280;64074;47.540;19.072;2022-10-16T03:03:19;101139.66;;;12.41;71.37
75497;BME280;64074;47.540;19.072;2022-10-16T03:06:56;101145.41;;;12.35;72.04
75497;BME280;64074;47.540;19.072;2022-10-16T03:26:22;101159.09;;;11.95;74.20
75497;BME280;64074;47.540;19.072;2022-10-16T03:29:31;101166.78;;;11.83;74.28
75497;BME280;64074;47.540;19.072;2022-10-16T03:32:45;101170.88;;;11.81;75.10
75497;BME280;64074;47.540;19.072;2022-10-16T03:35:55;101178.22;;;11.80;74.68
75497;BME280;64074;47.540;19.072;2022-10-16T03:39:00;101176.59;;;11.79;74.78
75497;BME280;64074;47.540;19.072;2022-10-16T03:42:04;101180.41;;;11.78;74.81
75497;BME280;64074;47.540;19.072;2022-10-16T03:45:14;101180.31;;;11.88;74.24
75497;BME280;64074;47.540;19.072;2022-10-16T03:48:41;101183.91;;;11.84;74.10
75497;BME280;64074;47.540;19.072;2022-10-16T03:52:08;101178.75;;;11.77;74.18
75497;BME280;64074;47.540;19.072;2022-10-16T03:55:22;101175.59;;;11.65;74.28
75497;BME280;64074;47.540;19.072;2022-10-16T03:58:25;101178.03;;;11.66;73.93
75497;BME280;64074;47.540;19.072;2022-10-16T04:01:35;101179.84;;;11.81;72.75
75497;BME280;64074;47.540;19.072;2022-10-16T04:04:45;101185.75;;;11.88;72.13
75497;BME280;64074;47.540;19.072;2022-10-16T04:07:54;101188.22;;;11.90;71.98
75497;BME280;64074;47.540;19.072;2022-10-16T04:11:05;101186.84;;;11.92;71.13
75497;BME280;64074;47.540;19.072;2022-10-16T04:14:09;101186.66;;;11.79;71.84
75497;BME280;64074;47.540;19.072;2022-10-16T04:17:19;101187.00;;;11.67;73.48
75497;BME280;64074;47.540;19.072;2022-10-16T04:20:34;101199.16;;;11.80;71.41
75497;BME280;64074;47.540;19.072;2022-10-16T04:23:39;101195.34;;;11.76;72.87
75497;BME280;64074;47.540;19.072;2022-10-16T04:26:49;101191.91;;;11.65;74.28
75497;BME280;64074;47.540;19.072;2022-10-16T04:30:10;101189.75;;;11.57;74.25
75497;BME280;64074;47.540;19.072;2022-10-16T04:33:20;101193.09;;;11.44;74.81
75497;BME280;64074;47.540;19.072;2022-10-16T04:36:54;101200.47;;;11.33;75.41
75497;BME280;64074;47.540;19.072;2022-10-16T04:40:16;101203.78;;;11.25;75.94
75497;BME280;64074;47.540;19.072;2022-10-16T04:43:26;101209.78;;;11.17;76.30
75497;BME280;64074;47.540;19.072;2022-10-16T04:46:35;101212.78;;;11.10;76.51
75497;BME280;64074;47.540;19.072;2022-10-16T04:49:45;101207.94;;;11.02;76.65
75497;BME280;64074;47.540;19.072;2022-10-16T04:52:53;101206.59;;;10.99;76.53
75497;BME280;64074;47.540;19.072;2022-10-16T04:55:56;101208.75;;;11.02;76.05
75497;BME280;64074;47.540;19.072;2022-10-16T04:58:59;101222.31;;;11.02;76.01
75497;BME280;64074;47.540;19.072;2022-10-16T05:02:09;101221.50;;;11.02;75.84
75497;BME280;64074;47.540;19.072;2022-10-16T05:05:31;101223.66;;;11.05;75.82
75497;BME280;64074;47.540;19.072;2022-10-16T05:08:59;101213.13;;;10.93;75.25
75497;BME280;64074;47.540;19.072;2022-10-16T05:12:20;101212.31;;;10.93;75.48
75497;BME280;64074;47.540;19.072;2022-10-16T05:15:37;101221.00;;;10.95;76.60
75497;BME280;64074;47.540;19.072;2022-10-16T05:18:51;101222.88;;;10.99;75.93
75497;BME280;64074;47.540;19.072;2022-10-16T05:22:07;101228.03;;;10.96;75.88
75497;BME280;64074;47.540;19.072;2022-10-16T05:25:42;101232.09;;;10.88;76.16
75497;BME280;64074;47.540;19.072;2022-10-16T05:28:58;101241.59;;;10.86;76.22
75497;BME280;64074;47.540;19.072;2022-10-16T05:32:08;101247.56;;;10.88;76.74
75497;BME280;64074;47.540;19.072;2022-10-16T05:35:19;101245.94;;;10.97;76.25
75497;BME280;64074;47.540;19.072;2022-10-16T05:38:27;101250.56;;;10.96;76.06
75497;BME280;64074;47.540;19.072;2022-10-16T05:41:37;101247.84;;;10.96;75.87
75497;BME280;64074;47.540;19.072;2022-10-16T05:45:11;101255.97;;;10.96;75.93
75497;BME280;64074;47.540;19.072;2022-10-16T05:48:33;101257.88;;;10.96;76.17
75497;BME280;64074;47.540;19.072;2022-10-16T05:51:48;101253.28;;;10.91;75.93
75497;BME280;64074;47.540;19.072;2022-10-16T05:55:08;101250.50;;;11.06;75.54
75497;BME280;64074;47.540;19.072;2022-10-16T05:58:41;101265.91;;;11.31;74.12
75497;BME280;64074;47.540;19.072;2022-10-16T06:02:02;101258.00;;;11.35;74.03
75497;BME280;64074;47.540;19.072;2022-10-16T06:05:23;101271.63;;;11.30;74.13
75497;BME280;64074;47.540;19.072;2022-10-16T06:08:47;101278.63;;;11.46;73.42
75497;BME280;64074;47.540;19.072;2022-10-16T06:12:08;101282.63;;;11.59;72.57
75497;BME280;64074;47.540;19.072;2022-10-16T06:15:19;101275.84;;;11.56;71.22
75497;BME280;64074;47.540;19.072;2022-10-16T06:18:51;101279.06;;;11.68;70.50
75497;BME280;64074;47.540;19.072;2022-10-16T06:22:23;101290.69;;;11.84;70.27
75497;BME280;64074;47.540;19.072;2022-10-16T06:25:27;101283.06;;;11.91;68.90
75497;BME280;64074;47.540;19.072;2022-10-16T06:28:37;101291.16;;;11.96;69.20
75497;BME280;64074;47.540;19.072;2022-10-16T06:32:01;101301.69;;;12.08;69.14
75497;BME280;64074;47.540;19.072;2022-10-16T06:35:05;101304.91;;;12.15;68.20
75497;BME280;64074;47.540;19.072;2022-10-16T06:38:12;101309.25;;;12.16;68.28
75497;BME280;64074;47.540;19.072;2022-10-16T06:41:22;101320.53;;;12.33;67.69
75497;BME280;64074;47.540;19.072;2022-10-16T06:44:53;101319.41;;;12.45;66.39
75497;BME280;64074;47.540;19.072;2022-10-16T06:47:57;101328.06;;;12.47;66.20
75497;BME280;64074;47.540;19.072;2022-10-16T06:51:09;101331.00;;;12.55;66.17
75497;BME280;64074;47.540;19.072;2022-10-16T06:54:21;101327.66;;;12.63;65.75
75497;BME280;64074;47.540;19.072;2022-10-16T06:57:50;101334.69;;;12.70;64.83
75497;BME280;64074;47.540;19.072;2022-10-16T07:01:05;101325.41;;;12.76;65.55
75497;BME280;64074;47.540;19.072;2022-10-16T07:04:25;101340.00;;;12.85;64.82
75497;BME280;64074;47.540;19.072;2022-10-16T07:07:35;101344.91;;;12.83;64.57
75497;BME280;64074;47.540;19.072;2022-10-16T07:10:46;101343.06;;;12.78;64.77
75497;BME280;64074;47.540;19.072;2022-10-16T07:13:55;101349.75;;;12.91;64.14
75497;BME280;64074;47.540;19.072;2022-10-16T07:16:59;101358.41;;;12.98;65.71
75497;BME280;64074;47.540;19.072;2022-10-16T07:20:07;101366.22;;;13.05;63.49
75497;BME280;64074;47.540;19.072;2022-10-16T07:23:14;101361.31;;;13.07;63.12
75497;BME280;64074;47.540;19.072;2022-10-16T07:26:24;101367.25;;;13.14;62.94
75497;BME280;64074;47.540;19.072;2022-10-16T07:29:28;101372.69;;;13.14;62.55
75497;BME280;64074;47.540;19.072;2022-10-16T07:32:32;101383.28;;;13.15;62.75
75497;BME280;64074;47.540;19.072;2022-10-16T07:35:53;101390.13;;;13.18;62.92
75497;BME280;64074;47.540;19.072;2022-10-16T07:39:03;101383.00;;;13.22;62.76
75497;BME280;64074;47.540;19.072;2022-10-16T07:42:18;101382.59;;;13.34;62.32
75497;BME280;64074;47.540;19.072;2022-10-16T07:45:48;101391.47;;;13.44;61.70
75497;BME280;64074;47.540;19.072;2022-10-16T07:49:13;101399.44;;;13.41;62.59
75497;BME280;64074;47.540;19.072;2022-10-16T07:52:43;101389.16;;;13.57;61.86
75497;BME280;64074;47.540;19.072;2022-10-16T07:55:56;101391.28;;;13.65;61.29
75497;BME280;64074;47.540;19.072;2022-10-16T07:59:29;101394.00;;;13.65;61.15
75497;BME280;64074;47.540;19.072;2022-10-16T08:02:41;101397.41;;;13.75;61.08
75497;BME280;64074;47.540;19.072;2022-10-16T08:05:51;101395.47;;;13.76;60.65
75497;BME280;64074;47.540;19.072;2022-10-16T08:09:32;101400.34;;;13.79;61.35
75497;BME280;64074;47.540;19.072;2022-10-16T08:12:42;101399.69;;;13.87;61.07
75497;BME280;64074;47.540;19.072;2022-10-16T08:15:54;101413.88;;;13.89;60.46
75497;BME280;64074;47.540;19.072;2022-10-16T08:18:58;101415.16;;;13.97;61.00
75497;BME280;64074;47.540;19.072;2022-10-16T08:22:08;101408.00;;;14.01;61.36
75497;BME280;64074;47.540;19.072;2022-10-16T08:25:18;101425.09;;;14.06;62.03
75497;BME280;64074;47.540;19.072;2022-10-16T08:28:38;101428.47;;;14.22;60.54
75497;BME280;64074;47.540;19.072;2022-10-16T08:31:58;101414.97;;;14.31;59.73
75497;BME280;64074;47.540;19.072;2022-10-16T08:35:18;101425.72;;;14.22;59.82
75497;BME280;64074;47.540;19.072;2022-10-16T08:38:37;101436.63;;;14.22;59.91
75497;BME280;64074;47.540;19.072;2022-10-16T08:45:21;101438.16;;;14.52;58.99
75497;BME280;64074;47.540;19.072;2022-10-16T08:52:12;101424.31;;;14.67;58.03
75497;BME280;64074;47.540;19.072;2022-10-16T08:55:37;101427.75;;;14.73;58.68
75497;BME280;64074;47.540;19.072;2022-10-16T08:58:49;101429.38;;;14.74;58.70
75497;BME280;64074;47.540;19.072;2022-10-16T09:01:57;101430.03;;;14.85;58.57
75497;BME280;64074;47.540;19.072;2022-10-16T09:15:17;101440.03;;;15.41;56.22
75497;BME280;64074;47.540;19.072;2022-10-16T09:18:57;101435.50;;;15.50;56.53
75497;BME280;64074;47.540;19.072;2022-10-16T09:22:31;101432.66;;;15.55;56.70
75497;BME280;64074;47.540;19.072;2022-10-16T09:25:38;101429.69;;;15.70;56.20
75497;BME280;64074;47.540;19.072;2022-10-16T09:28:52;101435.16;;;15.84;55.92
75497;BME280;64074;47.540;19.072;2022-10-16T09:32:19;101433.53;;;15.69;56.04
75497;BME280;64074;47.540;19.072;2022-10-16T09:35:44;101432.50;;;15.79;55.57
75497;BME280;64074;47.540;19.072;2022-10-16T09:39:06;101433.22;;;15.84;55.44
75497;BME280;64074;47.540;19.072;2022-10-16T09:42:27;101433.53;;;15.96;54.98
75497;BME280;64074;47.540;19.072;2022-10-16T09:45:40;101435.84;;;16.17;54.72
75497;BME280;64074;47.540;19.072;2022-10-16T09:48:56;101442.22;;;16.26;54.55
75497;BME280;64074;47.540;19.072;2022-10-16T09:52:05;101448.09;;;16.33;54.51
75497;BME280;64074;47.540;19.072;2022-10-16T09:55:17;101453.38;;;16.29;54.32
75497;BME280;64074;47.540;19.072;2022-10-16T09:58:23;101451.53;;;16.39;54.45
75497;BME280;64074;47.540;19.072;2022-10-16T10:01:38;101454.66;;;16.46;53.94
75497;BME280;64074;47.540;19.072;2022-10-16T10:04:58;101453.41;;;16.66;52.99
75497;BME280;64074;47.540;19.072;2022-10-16T10:08:21;101451.22;;;16.90;52.46
75497;BME280;64074;47.540;19.072;2022-10-16T10:11:59;101441.69;;;17.10;52.19
75497;BME280;64074;47.540;19.072;2022-10-16T10:15:14;101435.00;;;17.25;51.93
75497;BME280;64074;47.540;19.072;2022-10-16T10:18:24;101431.66;;;17.05;51.91
75497;BME280;64074;47.540;19.072;2022-10-16T10:21:38;101430.34;;;17.25;51.85
75497;BME280;64074;47.540;19.072;2022-10-16T10:32:06;101422.25;;;17.51;51.05
75497;BME280;64074;47.540;19.072;2022-10-16T10:39:12;101422.16;;;17.65;50.99
75497;BME280;64074;47.540;19.072;2022-10-16T10:42:32;101427.56;;;17.78;50.62
75497;BME280;64074;47.540;19.072;2022-10-16T10:45:47;101426.50;;;17.88;50.29
75497;BME280;64074;47.540;19.072;2022-10-16T10:52:51;101417.00;;;18.03;50.23
75497;BME280;64074;47.540;19.072;2022-10-16T11:06:06;101427.25;;;18.45;49.10
75497;BME280;64074;47.540;19.072;2022-10-16T11:09:21;101416.59;;;18.61;48.94
75497;BME280;64074;47.540;19.072;2022-10-16T11:12:44;101404.84;;;18.69;48.70
75497;BME280;64074;47.540;19.072;2022-10-16T11:16:03;101403.03;;;18.91;48.16
75497;BME280;64074;47.540;19.072;2022-10-16T11:19:43;101399.00;;;18.88;47.78
75497;BME280;64074;47.540;19.072;2022-10-16T11:23:05;101397.34;;;19.13;46.89
75497;BME280;64074;47.540;19.072;2022-10-16T11:26:24;101398.91;;;19.31;46.78
75497;BME280;64074;47.540;19.072;2022-10-16T11:29:47;101386.94;;;19.36;46.35
75497;BME280;64074;47.540;19.072;2022-10-16T11:33:27;101390.97;;;19.39;45.91
75497;BME280;64074;47.540;19.072;2022-10-16T11:36:50;101390.91;;;19.56;45.60
75497;BME280;64074;47.540;19.072;2022-10-16T11:40:21;101380.88;;;19.60;45.29
75497;BME280;64074;47.540;19.072;2022-10-16T11:43:37;101385.47;;;19.77;45.21
75497;BME280;64074;47.540;19.072;2022-10-16T11:47:19;101379.28;;;19.88;45.15
75497;BME280;64074;47.540;19.072;2022-10-16T11:51:48;101384.31;;;20.07;44.26
75497;BME280;64074;47.540;19.072;2022-10-16T11:58:38;101377.81;;;20.41;42.86
75497;BME280;64074;47.540;19.072;2022-10-16T12:01:47;101380.63;;;20.03;43.84
75497;BME280;64074;47.540;19.072;2022-10-16T12:05:33;101374.97;;;20.08;43.96
75497;BME280;64074;47.540;19.072;2022-10-16T12:09:22;101370.19;;;20.17;43.77
75497;BME280;64074;47.540;19.072;2022-10-16T12:15:45;101372.53;;;20.27;43.65
75497;BME280;64074;47.540;19.072;2022-10-16T12:19:14;101373.47;;;20.32;43.05
75497;BME280;64074;47.540;19.072;2022-10-16T12:22:33;101373.50;;;20.52;42.57
75497;BME280;64074;47.540;19.072;2022-10-16T12:25:54;101372.56;;;20.48;43.09
75497;BME280;64074;47.540;19.072;2022-10-16T12:32:37;101365.53;;;21.50;40.59
75497;BME280;64074;47.540;19.072;2022-10-16T12:35:55;101370.34;;;21.53;40.07
75497;BME280;64074;47.540;19.072;2022-10-16T12:39:21;101370.13;;;21.70;40.00
75497;BME280;64074;47.540;19.072;2022-10-16T12:42:56;101363.31;;;20.86;41.86
75497;BME280;64074;47.540;19.072;2022-10-16T12:49:34;101359.47;;;19.95;43.65
75497;BME280;64074;47.540;19.072;2022-10-16T12:53:04;101369.78;;;19.77;43.78
75497;BME280;64074;47.540;19.072;2022-10-16T13:00:25;101371.63;;;19.64;44.53
75497;BME280;64074;47.540;19.072;2022-10-16T13:03:53;101372.09;;;19.66;44.58
75497;BME280;64074;47.540;19.072;2022-10-16T13:18:38;101369.97;;;19.72;44.46
75497;BME280;64074;47.540;19.072;2022-10-16T13:21:55;101377.56;;;19.75;44.49
75497;BME280;64074;47.540;19.072;2022-10-16T13:25:32;101386.94;;;19.74;44.60
75497;BME280;64074;47.540;19.072;2022-10-16T13:28:50;101380.38;;;19.66;44.86
75497;BME280;64074;47.540;19.072;2022-10-16T13:32:00;101371.16;;;19.62;44.74
75497;BME280;64074;47.540;19.072;2022-10-16T13:35:28;101381.44;;;19.74;44.46
75497;BME280;64074;47.540;19.072;2022-10-16T13:38:47;101382.59;;;19.73;44.43
75497;BME280;64074;47.540;19.072;2022-10-16T13:42:05;101378.41;;;19.67;45.32
75497;BME280;64074;47.540;19.072;2022-10-16T13:45:22;101379.38;;;19.71;44.34
75497;BME280;64074;47.540;19.072;2022-10-16T13:48:34;101387.56;;;19.80;44.13
75497;BME280;64074;47.540;19.072;2022-10-16T13:52:01;101387.94;;;19.70;43.99
75497;BME280;64074;47.540;19.072;2022-10-16T13:55:18;101385.53;;;19.68;44.42
75497;BME280;64074;47.540;19.072;2022-10-16T13:58:22;101385.34;;;19.73;44.41
75497;BME280;64074;47.540;19.072;2022-10-16T14:01:50;101387.44;;;19.76;44.26
75497;BME280;64074;47.540;19.072;2022-10-16T14:05:01;101385.53;;;19.68;44.73
75497;BME280;64074;47.540;19.072;2022-10-16T14:08:12;101391.03;;;19.68;43.96
75497;BME280;64074;47.540;19.072;2022-10-16T14:11:24;101384.88;;;19.71;43.84
75497;BME280;64074;47.540;19.072;2022-10-16T14:14:40;101391.97;;;19.72;43.33
75497;BME280;64074;47.540;19.072;2022-10-16T14:17:50;101382.41;;;19.78;42.73
75497;BME280;64074;47.540;19.072;2022-10-16T14:21:04;101383.41;;;19.74;43.59
75497;BME280;64074;47.540;19.072;2022-10-16T14:24:42;101386.63;;;19.76;43.45
75497;BME280;64074;47.540;19.072;2022-10-16T14:28:14;101382.13;;;19.71;43.77
75497;BME280;64074;47.540;19.072;2022-10-16T14:31:31;101379.56;;;19.66;43.83
75497;BME280;64074;47.540;19.072;2022-10-16T14:34:37;101388.16;;;19.64;43.61
75497;BME280;64074;47.540;19.072;2022-10-16T14:37:51;101385.59;;;19.59;43.46
75497;BME280;64074;47.540;19.072;2022-10-16T14:41:03;101379.91;;;19.56;43.19
75497;BME280;64074;47.540;19.072;2022-10-16T14:44:17;101391.38;;;19.58;42.74
75497;BME280;64074;47.540;19.072;2022-10-16T14:47:47;101393.81;;;19.51;43.83
75497;BME280;64074;47.540;19.072;2022-10-16T14:50:58;101397.75;;;19.41;44.38
75497;BME280;64074;47.540;19.072;2022-10-16T14:54:20;101387.56;;;19.42;44.43
75497;BME280;64074;47.540;19.072;2022-10-16T14:57:42;101394.00;;;19.46;44.07
75497;BME280;64074;47.540;19.072;2022-10-16T15:00:55;101392.91;;;19.29;44.70
75497;BME280;64074;47.540;19.072;2022-10-16T15:04:25;101394.06;;;19.28;44.74
75497;BME280;64074;47.540;19.072;2022-10-16T15:07:53;101391.63;;;19.27;44.56
75497;BME280;64074;47.540;19.072;2022-10-16T15:11:16;101391.00;;;19.21;44.90
75497;BME280;64074;47.540;19.072;2022-10-16T15:14:30;101394.28;;;19.15;45.35
75497;BME280;64074;47.540;19.072;2022-10-16T15:17:51;101403.19;;;18.94;45.81
75497;BME280;64074;47.540;19.072;2022-10-16T15:21:07;101408.06;;;18.71;46.72
75497;BME280;64074;47.540;19.072;2022-10-16T15:24:14;101413.72;;;18.84;46.12
75497;BME280;64074;47.540;19.072;2022-10-16T15:27:23;101418.56;;;18.87;45.83
75497;BME280;64074;47.540;19.072;2022-10-16T15:30:37;101413.53;;;18.97;45.57
75497;BME280;64074;47.540;19.072;2022-10-16T15:33:54;101404.19;;;18.90;45.98
75497;BME280;64074;47.540;19.072;2022-10-16T15:37:18;101417.59;;;18.65;47.07
75497;BME280;64074;47.540;19.072;2022-10-16T15:40:29;101419.69;;;18.77;46.63
75497;BME280;64074;47.540;19.072;2022-10-16T15:43:58;101414.53;;;18.75;46.51
75497;BME280;64074;47.540;19.072;2022-10-16T15:47:25;101416.97;;;18.68;46.62
75497;BME280;64074;47.540;19.072;2022-10-16T15:50:38;101429.56;;;18.69;46.93
75497;BME280;64074;47.540;19.072;2022-10-16T15:54:13;101429.25;;;18.62;46.87
75497;BME280;64074;47.540;19.072;2022-10-16T15:57:37;101432.41;;;18.38;47.83
75497;BME280;64074;47.540;19.072;2022-10-16T16:01:00;101437.59;;;18.40;47.86
75497;BME280;64074;47.540;19.072;2022-10-16T16:04:10;101441.44;;;18.30;49.19
75497;BME280;64074;47.540;19.072;2022-10-16T16:07:52;101449.69;;;17.82;51.97
75497;BME280;64074;47.540;19.072;2022-10-16T16:11:12;101459.97;;;17.45;53.52
75497;BME280;64074;47.540;19.072;2022-10-16T16:14:21;101463.50;;;17.15;54.50
75497;BME280;64074;47.540;19.072;2022-10-16T16:17:31;101468.16;;;16.92;55.40
75497;BME280;64074;47.540;19.072;2022-10-16T16:20:41;101466.56;;;16.77;56.32
75497;BME280;64074;47.540;19.072;2022-10-16T16:23:58;101475.84;;;16.68;57.32
75497;BME280;64074;47.540;19.072;2022-10-16T16:27:01;101480.19;;;16.55;57.79
75497;BME280;64074;47.540;19.072;2022-10-16T16:30:13;101488.94;;;16.43;57.61
75497;BME280;64074;47.540;19.072;2022-10-16T16:33:22;101483.66;;;16.33;58.11
75497;BME280;64074;47.540;19.072;2022-10-16T16:36:31;101491.09;;;16.19;58.08
75497;BME280;64074;47.540;19.072;2022-10-16T16:39:46;101497.25;;;16.11;58.48
75497;BME280;64074;47.540;19.072;2022-10-16T16:43:06;101504.94;;;16.09;59.73
75497;BME280;64074;47.540;19.072;2022-10-16T16:46:27;101502.72;;;16.11;59.94
75497;BME280;64074;47.540;19.072;2022-10-16T16:49:55;101503.84;;;15.96;60.64
75497;BME280;64074;47.540;19.072;2022-10-16T16:53:18;101506.75;;;15.86;61.39
75497;BME280;64074;47.540;19.072;2022-10-16T16:56:35;101503.09;;;15.77;61.03
75497;BME280;64074;47.540;19.072;2022-10-16T16:59:59;101514.53;;;15.65;62.36
75497;BME280;64074;47.540;19.072;2022-10-16T17:03:10;101525.31;;;15.56;62.38
75497;BME280;64074;47.540;19.072;2022-10-16T17:06:39;101521.53;;;15.52;63.00
75497;BME280;64074;47.540;19.072;2022-10-16T17:10:04;101537.31;;;15.42;62.74
75497;BME280;64074;47.540;19.072;2022-10-16T17:13:15;101540.66;;;15.38;62.62
75497;BME280;64074;47.540;19.072;2022-10-16T17:16:44;101539.09;;;15.32;63.56
75497;BME280;64074;47.540;19.072;2022-10-16T17:20:11;101554.97;;;15.30;64.02
75497;BME280;64074;47.540;19.072;2022-10-16T17:23:32;101559.50;;;15.21;64.42
75497;BME280;64074;47.540;19.072;2022-10-16T17:26:58;101562.91;;;15.13;64.92
75497;BME280;64074;47.540;19.072;2022-10-16T17:30:18;101559.19;;;15.04;65.35
75497;BME280;64074;47.540;19.072;2022-10-16T17:33:38;101569.09;;;15.00;65.98
75497;BME280;64074;47.540;19.072;2022-10-16T17:36:59;101575.13;;;14.97;66.39
75497;BME280;64074;47.540;19.072;2022-10-16T17:40:22;101584.06;;;15.02;66.48
75497;BME280;64074;47.540;19.072;2022-10-16T17:43:42;101580.22;;;15.03;67.17
75497;BME280;64074;47.540;19.072;2022-10-16T17:47:02;101589.00;;;15.00;66.66
75497;BME280;64074;47.540;19.072;2022-10-16T17:50:22;101592.72;;;14.91;66.96
75497;BME280;64074;47.540;19.072;2022-10-16T17:53:50;101592.31;;;14.78;67.50
75497;BME280;64074;47.540;19.072;2022-10-16T17:57:05;101600.84;;;14.72;68.68
75497;BME280;64074;47.540;19.072;2022-10-16T18:00:09;101600.94;;;14.67;69.29
75497;BME280;64074;47.540;19.072;2022-10-16T18:03:12;101604.81;;;14.61;69.59
75497;BME280;64074;47.540;19.072;2022-10-16T18:06:22;101599.94;;;14.58;69.91
75497;BME280;64074;47.540;19.072;2022-10-16T18:09:59;101616.38;;;14.53;70.02
75497;BME280;64074;47.540;19.072;2022-10-16T18:13:28;101612.53;;;14.54;70.33
75497;BME280;64074;47.540;19.072;2022-10-16T18:16:42;101603.19;;;14.60;70.46
75497;BME280;64074;47.540;19.072;2022-10-16T18:20:10;101609.44;;;14.60;70.68
75497;BME280;64074;47.540;19.072;2022-10-16T18:23:32;101611.94;;;14.57;70.55
75497;BME280;64074;47.540;19.072;2022-10-16T18:26:54;101611.00;;;14.42;71.56
75497;BME280;64074;47.540;19.072;2022-10-16T18:30:13;101615.75;;;14.32;71.85
75497;BME280;64074;47.540;19.072;2022-10-16T18:33:40;101621.19;;;14.32;72.36
75497;BME280;64074;47.540;19.072;2022-10-16T18:37:03;101623.06;;;14.36;72.63